createdAt,value
2023-01-29T00:03:09.750Z,16.26
2023-01-29T00:07:27.209Z,16.27
2023-01-29T00:11:45.233Z,16.36
2023-01-29T00:16:03.833Z,16.27
2023-01-29T00:20:21.308Z,16.43
2023-01-29T00:24:38.861Z,15.64
2023-01-29T00:28:57.677Z,14.85
2023-01-29T00:33:15.288Z,15.39
2023-01-29T00:37:33.039Z,15.93
2023-01-29T00:42:25.818Z,16.26
2023-01-29T00:46:43.696Z,16.29
2023-01-29T00:51:02.855Z,16.23
2023-01-29T00:55:21.120Z,16.30
2023-01-29T00:59:38.536Z,16.25
2023-01-29T01:03:56.168Z,16.25
2023-01-29T01:08:32.454Z,16.32
2023-01-29T01:13:19.609Z,16.29
2023-01-29T01:17:37.044Z,16.23
2023-01-29T01:21:54.698Z,16.32
2023-01-29T01:26:12.365Z,16.25
2023-01-29T01:30:30.070Z,16.27
2023-01-29T01:34:47.584Z,16.27
2023-01-29T01:39:05.308Z,16.18
2023-01-29T01:43:22.935Z,16.26
2023-01-29T01:47:46.708Z,16.25
2023-01-29T01:52:04.822Z,16.17
2023-01-29T01:56:29.195Z,16.24
2023-01-29T02:00:46.732Z,16.18
2023-01-29T02:05:23.509Z,16.16
2023-01-29T02:09:49.229Z,16.27
2023-01-29T02:14:07.492Z,16.18
2023-01-29T02:18:24.914Z,16.24
2023-01-29T02:23:15.273Z,16.26
2023-01-29T02:28:19.047Z,16.14
2023-01-29T02:32:54.527Z,15.32
2023-01-29T02:37:14.169Z,15.35
2023-01-29T02:41:46.259Z,15.99
2023-01-29T02:46:33.142Z,16.10
2023-01-29T02:51:03.637Z,16.04
2023-01-29T02:55:49.233Z,16.07
2023-01-29T03:00:38.261Z,16.16
2023-01-29T03:05:03.337Z,16.05
2023-01-29T03:09:34.898Z,16.14
2023-01-29T03:14:13.637Z,16.12
2023-01-29T03:18:43.768Z,16.15
2023-01-29T03:23:10.782Z,16.17
2023-01-29T03:28:19.796Z,16.09
2023-01-29T03:32:38.717Z,16.03
2023-01-29T03:37:05.861Z,16.24
2023-01-29T03:41:34.764Z,16.04
2023-01-29T03:46:23.353Z,16.04
2023-01-29T03:51:02.046Z,16.04
2023-01-29T03:55:56.173Z,16.06
2023-01-29T04:00:21.315Z,16.04
2023-01-29T04:04:42.703Z,16.05
2023-01-29T04:09:22.409Z,16.10
2023-01-29T04:13:40.370Z,15.96
2023-01-29T04:17:57.882Z,16.08
2023-01-29T04:22:25.816Z,15.97
2023-01-29T04:27:00.282Z,16.03
2023-01-29T04:31:19.959Z,15.93
2023-01-29T04:36:15.216Z,15.44
2023-01-29T04:40:57.430Z,14.84
2023-01-29T04:45:36.170Z,15.56
2023-01-29T04:50:17.920Z,15.73
2023-01-29T04:55:03.885Z,15.74
2023-01-29T04:59:34.161Z,15.77
2023-01-29T05:03:54.996Z,15.86
2023-01-29T05:08:16.330Z,15.84
2023-01-29T05:12:35.901Z,15.87
2023-01-29T05:16:56.590Z,15.89
2023-01-29T05:21:14.176Z,15.83
2023-01-29T05:25:33.845Z,15.82
2023-01-29T05:29:51.347Z,15.89
2023-01-29T05:34:08.916Z,15.92
2023-01-29T05:38:26.633Z,15.89
2023-01-29T05:42:44.441Z,15.84
2023-01-29T05:47:02.926Z,15.78
2023-01-29T05:51:20.714Z,15.81
2023-01-29T05:55:38.323Z,15.76
2023-01-29T05:59:55.441Z,15.87
2023-01-29T06:04:12.917Z,15.87
2023-01-29T06:08:31.045Z,15.87
2023-01-29T06:12:48.622Z,15.94
2023-01-29T06:17:06.534Z,15.95
2023-01-29T06:21:24.068Z,16.00
2023-01-29T06:25:41.621Z,15.91
2023-01-29T06:29:59.018Z,15.95
2023-01-29T06:34:16.869Z,15.84
2023-01-29T06:38:34.650Z,15.95
2023-01-29T06:42:52.221Z,14.89
2023-01-29T06:47:09.805Z,14.88
2023-01-29T06:51:27.684Z,15.63
2023-01-29T06:55:52.227Z,15.68
2023-01-29T07:00:10.887Z,15.74
2023-01-29T07:04:28.325Z,15.73
2023-01-29T07:08:45.897Z,15.80
2023-01-29T07:13:03.468Z,15.90
2023-01-29T07:17:21.549Z,15.77
2023-01-29T07:21:39.168Z,15.91
2023-01-29T07:25:56.757Z,15.89
2023-01-29T07:30:15.120Z,15.88
2023-01-29T07:34:32.801Z,16.05
2023-01-29T07:38:51.319Z,16.00
2023-01-29T07:43:10.114Z,16.18
2023-01-29T07:47:27.700Z,15.99
2023-01-29T07:51:45.258Z,15.96
2023-01-29T07:56:02.999Z,16.07
2023-01-29T08:00:21.287Z,16.24
2023-01-29T08:04:38.660Z,16.35
2023-01-29T08:08:58.144Z,16.30
2023-01-29T08:13:15.907Z,16.30
2023-01-29T08:17:33.585Z,16.33
2023-01-29T08:21:51.129Z,16.15
2023-01-29T08:26:09.272Z,16.24
2023-01-29T08:30:28.203Z,16.29
2023-01-29T08:34:45.823Z,16.39
2023-01-29T08:39:03.417Z,16.44
2023-01-29T08:43:20.581Z,16.20
2023-01-29T08:47:38.059Z,15.42
2023-01-29T08:51:57.138Z,14.89
2023-01-29T08:56:16.400Z,15.69
2023-01-29T09:00:35.284Z,15.98
2023-01-29T09:04:52.726Z,16.02
2023-01-29T09:09:11.400Z,16.14
2023-01-29T09:13:29.048Z,16.11
2023-01-29T09:17:46.793Z,16.05
2023-01-29T09:22:04.253Z,16.33
2023-01-29T09:26:21.944Z,16.38
2023-01-29T09:30:39.547Z,16.50
2023-01-29T09:34:57.949Z,16.42
2023-01-29T09:39:15.406Z,16.56
2023-01-29T09:43:53.408Z,16.35
2023-01-29T09:48:11.853Z,16.60
2023-01-29T09:52:36.227Z,16.49
2023-01-29T09:56:57.299Z,16.42
2023-01-29T10:01:26.333Z,16.71
2023-01-29T10:06:12.339Z,16.41
2023-01-29T10:11:11.332Z,16.32
2023-01-29T10:16:01.840Z,16.30
2023-01-29T10:21:02.390Z,16.48
2023-01-29T10:25:22.518Z,16.43
2023-01-29T10:29:43.309Z,16.29
2023-01-29T10:34:11.214Z,16.53
2023-01-29T10:38:40.061Z,16.26
2023-01-29T10:43:31.583Z,16.33
2023-01-29T10:47:54.717Z,16.32
2023-01-29T10:52:57.282Z,15.76
2023-01-29T10:57:38.000Z,15.91
2023-01-29T11:02:03.551Z,16.26
2023-01-29T11:06:29.987Z,16.45
2023-01-29T11:10:58.617Z,16.73
2023-01-29T11:15:26.670Z,16.81
2023-01-29T11:19:47.537Z,17.26
2023-01-29T11:24:18.782Z,17.26
2023-01-29T11:28:48.151Z,16.96
2023-01-29T11:33:08.332Z,16.74
2023-01-29T11:37:36.093Z,16.96
2023-01-29T11:42:04.181Z,16.76
2023-01-29T11:46:21.897Z,16.62
2023-01-29T11:50:39.344Z,16.83
2023-01-29T11:55:03.381Z,17.33
2023-01-29T11:59:37.230Z,18.06
2023-01-29T12:03:55.341Z,17.44
2023-01-29T12:08:18.213Z,17.75
2023-01-29T12:12:42.561Z,17.23
2023-01-29T12:17:15.907Z,17.35
2023-01-29T12:22:03.034Z,17.24
2023-01-29T12:26:25.920Z,17.32
2023-01-29T12:31:14.485Z,17.25
2023-01-29T12:36:13.954Z,17.28
2023-01-29T12:40:47.660Z,17.10
2023-01-29T12:45:11.128Z,17.28
2023-01-29T12:49:33.643Z,17.12
2023-01-29T12:54:07.689Z,18.05
2023-01-29T12:58:28.943Z,16.74
2023-01-29T13:03:20.871Z,17.12
2023-01-29T13:07:46.203Z,17.35
2023-01-29T13:12:17.365Z,16.94
2023-01-29T13:16:41.922Z,16.98
2023-01-29T13:21:01.136Z,16.86
2023-01-29T13:25:20.462Z,16.89
2023-01-29T13:29:38.159Z,16.81
2023-01-29T13:34:10.299Z,16.40
2023-01-29T13:38:33.614Z,16.61
2023-01-29T13:42:54.273Z,16.76
2023-01-29T13:47:25.117Z,16.48
2023-01-29T13:51:42.705Z,16.48
2023-01-29T13:56:38.543Z,16.63
2023-01-29T14:00:56.410Z,16.71
2023-01-29T14:05:32.479Z,16.51
2023-01-29T14:09:50.113Z,16.44
2023-01-29T14:14:51.438Z,16.57
2023-01-29T14:19:19.276Z,16.55
2023-01-29T14:23:50.834Z,16.36
2023-01-29T14:28:21.168Z,16.44
2023-01-29T14:32:40.702Z,16.33
2023-01-29T14:37:15.338Z,16.18
2023-01-29T14:41:36.595Z,16.19
2023-01-29T14:45:54.079Z,16.30
2023-01-29T14:50:30.363Z,16.24
2023-01-29T14:54:50.213Z,16.15
2023-01-29T14:59:21.056Z,15.97
2023-01-29T15:03:49.998Z,16.02
2023-01-29T15:08:38.239Z,16.54
2023-01-29T15:13:19.289Z,16.49
2023-01-29T15:17:54.832Z,16.53
2023-01-29T15:22:22.031Z,16.53
2023-01-29T15:26:43.283Z,16.42
2023-01-29T15:31:05.980Z,16.41
2023-01-29T15:35:36.034Z,16.44
2023-01-29T15:39:54.475Z,16.30
2023-01-29T15:44:17.415Z,16.49
2023-01-29T15:48:40.779Z,16.38
2023-01-29T15:53:03.945Z,16.33
2023-01-29T15:57:31.345Z,16.30
2023-01-29T16:01:48.509Z,16.23
2023-01-29T16:06:07.497Z,16.41
2023-01-29T16:10:29.082Z,16.32
2023-01-29T16:14:48.766Z,16.35
2023-01-29T16:19:21.796Z,16.24
2023-01-29T16:23:49.023Z,16.31
2023-01-29T16:28:08.156Z,16.26
2023-01-29T16:32:26.086Z,16.40
2023-01-29T16:36:48.380Z,16.29
2023-01-29T16:41:31.287Z,16.17
2023-01-29T16:46:15.966Z,16.24
2023-01-29T16:50:46.336Z,16.26
2023-01-29T16:55:13.479Z,16.22
2023-01-29T16:59:39.623Z,16.27
2023-01-29T17:04:07.241Z,15.29
2023-01-29T17:08:33.705Z,15.89
2023-01-29T17:12:55.480Z,16.06
2023-01-29T17:17:18.936Z,16.17
2023-01-29T17:21:36.601Z,16.17
2023-01-29T17:25:54.139Z,16.16
2023-01-29T17:30:16.806Z,16.27
2023-01-29T17:34:34.284Z,16.25
2023-01-29T17:38:51.822Z,16.13
2023-01-29T17:43:11.886Z,16.21
2023-01-29T17:47:29.513Z,16.00
2023-01-29T17:51:46.609Z,16.05
2023-01-29T17:56:04.559Z,16.10
2023-01-29T18:00:24.755Z,16.21
2023-01-29T18:04:42.536Z,16.29
2023-01-29T18:09:00.212Z,16.11
2023-01-29T18:13:17.997Z,16.14
2023-01-29T18:17:35.510Z,16.07
2023-01-29T18:21:54.395Z,16.14
2023-01-29T18:26:12.790Z,16.28
2023-01-29T18:30:30.589Z,16.13
2023-01-29T18:34:48.231Z,16.08
2023-01-29T18:39:06.023Z,16.09
2023-01-29T18:43:26.238Z,16.15
2023-01-29T18:47:49.547Z,16.14
2023-01-29T18:52:08.218Z,16.03
2023-01-29T18:56:26.042Z,16.20
2023-01-29T19:00:43.955Z,16.19
2023-01-29T19:05:01.978Z,15.84
2023-01-29T19:09:19.707Z,15.20
2023-01-29T19:13:38.331Z,15.85
2023-01-29T19:17:56.788Z,15.92
2023-01-29T19:22:16.860Z,15.95
2023-01-29T19:26:34.734Z,16.08
2023-01-29T19:30:52.499Z,16.06
2023-01-29T19:35:10.049Z,16.09
2023-01-29T19:39:32.837Z,16.04
2023-01-29T19:43:50.300Z,15.97
2023-01-29T19:48:08.381Z,16.03
2023-01-29T19:52:50.374Z,15.99
2023-01-29T19:57:09.305Z,15.95
2023-01-29T20:01:29.629Z,16.03
2023-01-29T20:05:48.452Z,16.18
2023-01-29T20:10:10.100Z,16.11
2023-01-29T20:14:27.586Z,16.15
2023-01-29T20:18:45.263Z,16.04
2023-01-29T20:23:02.724Z,16.11
2023-01-29T20:27:20.371Z,16.08
2023-01-29T20:31:37.866Z,16.22
2023-01-29T20:35:58.616Z,16.04
2023-01-29T20:40:16.791Z,16.11
2023-01-29T20:44:34.547Z,16.05
2023-01-29T20:48:54.140Z,16.09
2023-01-29T20:53:12.110Z,16.16
2023-01-29T20:57:29.863Z,16.00
2023-01-29T21:01:47.487Z,15.93
2023-01-29T21:06:06.321Z,16.09
2023-01-29T21:10:24.282Z,15.11
2023-01-29T21:14:41.775Z,14.87
2023-01-29T21:19:00.208Z,15.62
2023-01-29T21:23:18.032Z,15.85
2023-01-29T21:27:36.071Z,15.96
2023-01-29T21:31:53.593Z,15.93
2023-01-29T21:36:12.223Z,15.92
2023-01-29T21:40:30.654Z,15.86
2023-01-29T21:44:48.277Z,15.93
2023-01-29T21:49:05.879Z,16.03
2023-01-29T21:53:23.570Z,15.95
2023-01-29T21:57:42.904Z,15.92
2023-01-29T22:02:01.601Z,16.06
2023-01-29T22:06:19.159Z,15.96
2023-01-29T22:10:37.947Z,15.91
2023-01-29T22:14:55.473Z,16.08
2023-01-29T22:19:14.012Z,16.00
2023-01-29T22:23:32.528Z,15.92
2023-01-29T22:27:51.137Z,15.81
2023-01-29T22:32:10.123Z,15.85
2023-01-29T22:36:27.673Z,15.94
2023-01-29T22:40:56.464Z,15.93
2023-01-29T22:45:14.042Z,15.91
2023-01-29T22:49:31.620Z,15.88
2023-01-29T22:53:56.928Z,15.90
2023-01-29T22:58:14.395Z,15.95
2023-01-29T23:02:31.992Z,15.98
2023-01-29T23:06:49.503Z,15.95
2023-01-29T23:11:17.912Z,16.00
2023-01-29T23:15:35.346Z,15.08
2023-01-29T23:19:52.977Z,14.93
2023-01-29T23:24:10.923Z,15.63
2023-01-29T23:28:28.710Z,15.80
2023-01-29T23:32:46.285Z,15.77
2023-01-29T23:37:03.682Z,15.85
2023-01-29T23:41:21.584Z,15.83
2023-01-29T23:45:39.052Z,15.82
2023-01-29T23:49:56.748Z,15.87
2023-01-29T23:54:14.476Z,15.91
2023-01-29T23:58:32.853Z,15.88
